Aérodrome :
LOGIN :

S'inscrire | Disclaimer

   EN    FR    IT 

 










Légende :    VFR   VFR Marginal   IFR   IFR Intensif   IFR Très Intensif
Visi : 
Plafond : 
>= 8 km
>= 3000ft
5 à 8 km
1000 à 3000 ft
1500m à 5 km
500 à 1000 ft
800 à 1500m
200 à 500 ft
< 800m
< 200 ft
Symboles :   Orages  Brouillard  Fortes neiges  Fortes précipitations  Vent > 20 kt
SIGMETs :   Divers  Orages  Givrage  Turbulence  Onde Orograph.  Cendres Volcan.






- Altitude de l'aérodrome : 13 ft
- Code IATA : SNR


LFRZ - St-Nazaire

DERNIER METAR :
  • 081130Z AUTO 06011KT 8000 NSC 07/M01 Q1023 NOSIG

METARs EXPIRÉS :
  • 081100Z AUTO 05009KT 010V080 8000 NSC 07/00 Q1023 NOSIG
  • 081030Z AUTO 06011KT 030V090 8000 NSC 06/00 Q1023 NOSIG
  • 081000Z AUTO 05008KT 020V080 8000 NSC 05/M00 Q1023 NOSIG
  • 080930Z AUTO 03007KT 360V060 7000 NSC 04/M00 Q1023 NOSIG
  • 080900Z AUTO 03008KT CAVOK 03/M01 Q1023 NOSIG

TAF TAF LFRZ
Valide du 08 à 12h jusqu'au 09 à 12h UTC


081100Z 0812/0912 05010KT CAVOK



MET'MAP, la Météo Aéronautique d'un coup d'oeil ! - Copyright ORBIFLY Décembre 2007 - Disclaimer

ORBIFLY MET'MAP TEAM :

Programmation & Développement : Alexandra Zaïnal
Sur une idée originale de : Baudouin d'Aumeries
Assistance à la programmation : Marc-Olivier Méhu
Soutien technique & logistique : Manuel Goepfert

Contact : metmap@orbifly.com




SOURCES & CREDITS :

   NOAA